Flight Track Log - Related Links

Times and Time Zones

All times are in EDT time to prevent confusion due to time zone crossing. See the SWA4758 flight status page for this flight to view local times or setup timezone preferences in your user account.

Time Position Orientation Groundspeed Altitude Reporting Facility
EDT Latitude Longitude Course Direction KTS MPH feet Rate Location/Type
Mon 06:19:49 PM 26.0756 -80.1706 276° West 157 181 700  Level Miami Center
Mon 06:20:35 PM 26.0789 -80.2047 276° West 161 185 1,600 1,747 Climbing Miami Center
Mon 06:21:08 PM 26.0983 -80.2442 299° West 230 265 3,000 1,967 Climbing Miami Center
Mon 06:21:36 PM 26.1169 -80.2475 351° North 217 250 3,600 1,933 Climbing Miami Center
Mon 06:22:38 PM 26.1878 -80.2711 343° North 266 306 5,900 3,145 Climbing Miami Center
Mon 06:23:40 PM 26.2761 -80.2997 344° North 274 315 10,100 3,122 Climbing Miami Center
Mon 06:24:41 PM 26.3603 -80.3281 343° North 329 379 12,300 2,537 Climbing Miami Center
Mon 06:25:43 PM 26.4622 -80.3614 344° North 353 406 15,300 2,829 Climbing Miami Center
Mon 06:26:44 PM 26.5639 -80.3939 344° North 375 432 18,100 2,585 Climbing Miami Center
Mon 06:27:46 PM 26.6508 -80.4631 325° Northwest 387 445 20,600 2,177 Climbing Miami Center
Mon 06:28:48 PM 26.7486 -80.5464 323° Northwest 410 472 22,600 1,805 Climbing Miami Center
Mon 06:29:49 PM 26.8261 -80.6125 323° Northwest 417 480 24,300 1,854 Climbing Miami Center
Mon 06:30:51 PM 26.9414 -80.7108 323° Northwest 433 498 26,400 1,756 Climbing Miami Center
Mon 06:31:52 PM 27.0397 -80.7942 323° Northwest 442 509 27,900 1,366 Climbing Miami Center
Mon 06:32:54 PM 27.1414 -80.8817 323° Northwest 456 525 29,200 1,355 Climbing Miami Center
Mon 06:33:56 PM 27.2467 -80.9722 323° Northwest 470 541 30,700 1,659 Climbing Miami Center
Mon 06:34:57 PM 27.3517 -81.0619 323° Northwest 477 549 32,600 1,610 Climbing Miami Center
Mon 06:35:59 PM 27.4572 -81.1542 322° Northwest 474 545 34,000 1,355 Climbing Miami Center
Mon 06:37:01 PM 27.5639 -81.2464 323° Northwest 477 549 35,400 1,366 Climbing Miami Center
Mon 06:38:02 PM 27.6697 -81.3372 323° Northwest 477 549 36,800 1,268 Climbing Miami Center
Mon 06:39:04 PM 27.7936 -81.4439 323° Northwest 471 542 38,000 585 Climbing Miami Center
Mon 06:40:05 PM 27.8986 -81.5361 322° Northwest 471 542 38,000  Level Miami Center
Mon 06:41:07 PM 28.0031 -81.6269 322° Northwest 470 541 38,000  Level Miami Center
Mon 06:42:09 PM 28.1072 -81.7178 322° Northwest 470 541 38,000  Level Miami Center
Mon 06:43:10 PM 28.2103 -81.8075 323° Northwest 469 540 38,000  Level Miami Center
Mon 06:44:12 PM 28.3119 -81.8972 322° Northwest 464 534 38,000  Level Miami Center
Mon 06:45:13 PM 28.4214 -81.9947 322° Northwest 465 535 38,000  Level Miami Center
Mon 06:46:15 PM 28.5233 -82.0831 323° Northwest 464 534 38,000  Level Miami Center
Mon 06:47:16 PM 28.6244 -82.1736 322° Northwest 464 534 38,000  Level Miami Center
Mon 06:48:18 PM 28.7261 -82.2642 322° Northwest 464 534 38,000  Level Miami Center
Mon 06:49:19 PM 28.8333 -82.3461 326° Northwest 464 534 38,000  Level Miami Center
Mon 06:50:21 PM 28.9589 -82.3936 342° North 469 540 38,000  Level Miami Center
Mon 06:51:22 PM 29.1039 -82.4561 339° North 468 539 38,000  Level Miami Center
Mon 06:52:24 PM 29.2261 -82.5083 340° North 468 539 38,000  Level Miami Center
Mon 06:53:25 PM 29.3483 -82.5586 340° North 468 539 38,000  Level Miami Center
Mon 06:54:27 PM 29.4700 -82.6094 340° North 468 539 38,000  Level Miami Center
Mon 06:55:29 PM 29.5914 -82.6594 340° North 467 537 38,000  Level Miami Center
Mon 06:56:34 PM 29.7256 -82.7181 339° North 475 547 38,000  Level Jacksonville Center
Mon 06:57:34 PM 29.8489 -82.7706 340° North 475 547 38,000  Level Jacksonville Center
Mon 06:58:34 PM 29.9681 -82.8231 339° North 470 541 38,000  Level Jacksonville Center
Mon 06:59:34 PM 30.1058 -82.8758 342° North 470 541 38,000  Level Jacksonville Center
Mon 07:00:34 PM 30.2247 -82.9261 340° North 465 535 38,000  Level Jacksonville Center
Mon 07:01:34 PM 30.3500 -82.9792 340° North 465 535 38,000  Level Jacksonville Center
Mon 07:02:34 PM 30.4689 -83.0300 340° North 465 535 38,000  Level Jacksonville Center
Mon 07:03:34 PM 30.5942 -83.0833 340° North 465 535 38,000  Level Jacksonville Center
Mon 07:04:34 PM 30.7153 -83.1367 339° North 465 535 38,000  Level Jacksonville Center
Mon 07:05:34 PM 30.8092 -83.1756 340° North 465 535 38,000  Level Jacksonville Center
Mon 07:06:34 PM 30.9531 -83.2317 342° North 460 529 38,000  Level Jacksonville Center
Mon 07:07:34 PM 31.0803 -83.2686 346° North 460 529 38,000  Level Jacksonville Center
Mon 07:10:23 PM 31.4214 -83.3744 345° North 448 516 38,000  Level Atlanta Center
Mon 07:11:23 PM 31.5447 -83.4103 346° North 448 516 38,000  Level Atlanta Center
Mon 07:12:23 PM 31.6700 -83.4458 346° North 453 521 38,000  Level Atlanta Center
Mon 07:13:23 PM 31.7975 -83.4842 346° North 458 527 38,000  Level Atlanta Center
Mon 07:14:23 PM 31.9231 -83.5250 345° North 458 527 38,000  Level Atlanta Center
Mon 07:15:23 PM 32.0461 -83.5658 344° North 458 527 38,000  Level Atlanta Center
Mon 07:16:23 PM 32.1717 -83.6044 345° North 458 527 38,000  Level Atlanta Center
Mon 07:17:23 PM 32.2969 -83.6433 345° North 458 527 38,000  Level Atlanta Center
Mon 07:18:23 PM 32.4222 -83.6819 345° North 458 527 38,000  Level Atlanta Center
Mon 07:19:23 PM 32.5478 -83.7233 344° North 458 527 38,000  Level Atlanta Center
Mon 07:20:23 PM 32.6731 -83.7625 345° North 458 527 38,000  Level Atlanta Center
Mon 07:21:23 PM 32.7983 -83.8017 345° North 458 527 38,000  Level Atlanta Center
Mon 07:22:23 PM 32.9236 -83.8383 346° North 453 521 38,000  Level Atlanta Center
Mon 07:23:23 PM 33.0469 -83.8778 345° North 453 521 38,000  Level Atlanta Center
Mon 07:24:23 PM 33.1700 -83.9147 346° North 453 521 38,000  Level Atlanta Center
Mon 07:25:23 PM 33.2953 -83.9567 344° North 453 521 38,000  Level Atlanta Center
Mon 07:26:23 PM 33.4164 -83.9939 346° North 453 521 38,000  Level Atlanta Center
Mon 07:27:23 PM 33.5564 -84.0364 346° North 460 529 38,000  Level Atlanta Center
Mon 07:28:23 PM 33.6794 -84.0761 345° North 460 529 38,000  Level Atlanta Center
Mon 07:29:23 PM 33.8047 -84.1164 345° North 455 524 38,000  Level Atlanta Center
Mon 07:30:23 PM 33.9300 -84.1539 346° North 455 524 38,000  Level Atlanta Center
Mon 07:31:23 PM 34.0550 -84.1967 344° North 455 524 38,000  Level Atlanta Center
Mon 07:32:23 PM 34.1803 -84.2372 345° North 449 517 38,000  Level Atlanta Center
Mon 07:33:23 PM 34.3011 -84.2750 346° North 454 522 38,000  Level Atlanta Center
Mon 07:34:23 PM 34.4242 -84.3183 344° North 454 522 38,000  Level Atlanta Center
Mon 07:35:24 PM 34.5514 -84.3592 345° North 454 522 38,000  Level Atlanta Center
Mon 07:36:23 PM 34.6744 -84.4000 345° North 454 522 38,000  Level Atlanta Center
Mon 07:37:23 PM 34.7994 -84.4411 345° North 454 522 38,000  Level Atlanta Center
Mon 07:38:23 PM 34.9247 -84.4847 344° North 454 522 38,000  Level Atlanta Center
Mon 07:39:23 PM 35.0308 -84.5208 344° North 449 517 38,000  Level Atlanta Center
Mon 07:40:23 PM 35.1558 -84.5594 346° North 449 517 38,000  Level Atlanta Center
Mon 07:41:23 PM 35.2789 -84.6011 345° North 454 522 38,000  Level Atlanta Center
Mon 07:42:23 PM 35.4039 -84.6425 345° North 454 522 38,000  Level Atlanta Center
Mon 07:43:23 PM 35.5247 -84.6817 345° North 454 522 38,000  Level Atlanta Center
Mon 07:44:23 PM 35.6456 -84.7236 344° North 454 522 38,000  Level Atlanta Center
Mon 07:45:23 PM 35.7683 -84.7606 346° North 454 522 38,000  Level Atlanta Center
Mon 07:47:04 PM 35.9889 -84.8389 344° North 459 528 38,000  Level Indianapolis Center
Mon 07:48:06 PM 36.1081 -84.8781 345° North 455 524 38,000  Level Indianapolis Center
Mon 07:49:08 PM 36.2281 -84.9197 344° North 451 519 38,000  Level Indianapolis Center
Mon 07:50:09 PM 36.3475 -84.9608 345° North 450 518 38,000  Level Indianapolis Center
Mon 07:51:11 PM 36.4669 -85.0025 344° North 450 518 38,000  Level Indianapolis Center
Mon 07:52:13 PM 36.6114 -85.0494 345° North 449 517 38,000 -244 Level Indianapolis Center
Mon 07:53:14 PM 36.7325 -85.0822 348° North 447 514 37,500 -683 Descending Indianapolis Center
Mon 07:54:16 PM 36.8533 -85.1183 347° North 447 514 36,600 -919 Descending Indianapolis Center
Mon 07:55:18 PM 36.9786 -85.1547 347° North 456 525 35,600 -927 Descending Indianapolis Center
Mon 07:56:19 PM 37.0978 -85.1897 347° North 458 527 34,700 -1,024 Descending Indianapolis Center
Mon 07:57:21 PM 37.2439 -85.2328 347° North 461 531 33,500 -1,065 Descending Indianapolis Center
Mon 07:58:23 PM 37.3661 -85.2700 346° North 456 525 32,500 -726 Descending Indianapolis Center
Mon 07:59:25 PM 37.4883 -85.3067 347° North 454 522 32,000 -242 Descending Indianapolis Center
Mon 08:00:27 PM 37.6111 -85.3417 347° North 454 522 32,000  Level Indianapolis Center
Mon 08:01:28 PM 37.7331 -85.3764 347° North 453 521 32,000  Level Indianapolis Center
Mon 08:02:30 PM 37.8497 -85.4117 347° North 444 511 32,000  Level Indianapolis Center
Mon 08:03:32 PM 37.9689 -85.4483 346° North 441 507 32,000  Level Indianapolis Center
Mon 08:04:34 PM 38.1106 -85.4906 347° North 439 505 32,000 -726 Level Indianapolis Center
Mon 08:05:36 PM 38.2300 -85.5261 347° North 439 505 30,500 -1,902 Descending Indianapolis Center
Mon 08:06:37 PM 38.3461 -85.5622 346° North 435 501 28,100 -2,098 Descending Indianapolis Center
Mon 08:07:39 PM 38.4606 -85.5969 347° North 426 490 26,200 -1,984 Descending Indianapolis Center
Mon 08:08:41 PM 38.5725 -85.6311 347° North 420 483 24,000 -2,274 Descending Indianapolis Center
Mon 08:09:43 PM 38.6878 -85.6539 351° North 412 474 21,500 -2,371 Descending Indianapolis Center
Mon 08:10:45 PM 38.7997 -85.6739 352° North 411 473 19,100 -2,081 Descending Indianapolis Center
Mon 08:11:47 PM 38.9083 -85.6928 352° North 401 461 17,200 -1,902 Descending Indianapolis Center
Mon 08:12:48 PM 39.0289 -85.7158 352° North 372 428 15,200 -1,512 Descending Indianapolis Center
Mon 08:13:50 PM 39.1214 -85.7317 352° North 347 399 14,100 -1,016 Descending Indianapolis Center
Mon 08:14:52 PM 39.2097 -85.7483 352° North 326 375 13,100 -968 Descending Indianapolis Center
Mon 08:15:54 PM 39.2981 -85.7644 352° North 325 374 12,100 -976 Descending Indianapolis Center
Mon 08:16:55 PM 39.3664 -85.8311 323° Northwest 317 365 11,100 -1,024 Descending Indianapolis Center
Mon 08:17:57 PM 39.4278 -85.9036 318° Northwest 305 351 10,000 -1,016 Descending Indianapolis Center
Mon 08:18:59 PM 39.4872 -85.9744 317° Northwest 298 343 9,000 -1,065 Descending Indianapolis Center
Mon 08:20:01 PM 39.5583 -86.0608 317° Northwest 295 339 7,800 -1,317 Descending Indianapolis Center
Mon 08:21:02 PM 39.5714 -86.1631 279° West 292 336 6,300 -1,366 Descending Indianapolis Center
Mon 08:22:04 PM 39.5800 -86.2633 276° West 284 327 5,000 -871 Descending Indianapolis Center
Mon 08:23:06 PM 39.5936 -86.3433 282° West 235 270 4,500 -878 Descending Indianapolis Center
Mon 08:24:07 PM 39.6292 -86.3858 317° Northwest 200 230 3,200 -1,317 Descending Indianapolis Center
Mon 08:25:09 PM 39.6672 -86.3708 17° North 170 196 1,800 -1,016 Descending Indianapolis Center
Mon 08:26:11 PM 39.6939 -86.3364 45° Northeast 148 170 1,100 -532 Descending Indianapolis Center
Mon 08:27:13 PM 39.7250 -86.2967 44° Northeast 143 165 700 -387 Descending Indianapolis Center

Login

Don't have an account? Register now (free) for customized features, flight alerts, and more!